sensor_id;sensor_type;location;lat;lon;timestamp;P1;durP1;ratioP1;P2;durP2;ratioP2
59514;SDS011;46082;43.034;-0.072;2022-08-04T00:00:35;4.55;;;2.83;;
59514;SDS011;46082;43.034;-0.072;2022-08-04T00:03:13;5.20;;;3.20;;
59514;SDS011;46082;43.034;-0.072;2022-08-04T00:10:39;3.63;;;2.92;;
59514;SDS011;46082;43.034;-0.072;2022-08-04T00:13:09;3.95;;;3.53;;
59514;SDS011;46082;43.034;-0.072;2022-08-04T00:15:36;5.28;;;3.10;;
59514;SDS011;46082;43.034;-0.072;2022-08-04T00:18:02;4.20;;;3.17;;
59514;SDS011;46082;43.034;-0.072;2022-08-04T00:20:30;3.70;;;3.40;;
59514;SDS011;46082;43.034;-0.072;2022-08-04T00:22:56;5.32;;;3.33;;
59514;SDS011;46082;43.034;-0.072;2022-08-04T00:25:24;4.15;;;3.47;;
59514;SDS011;46082;43.034;-0.072;2022-08-04T00:27:51;3.42;;;2.83;;
59514;SDS011;46082;43.034;-0.072;2022-08-04T00:30:17;3.15;;;2.95;;
59514;SDS011;46082;43.034;-0.072;2022-08-04T00:32:43;3.55;;;3.25;;
59514;SDS011;46082;43.034;-0.072;2022-08-04T00:35:09;3.45;;;3.15;;
59514;SDS011;46082;43.034;-0.072;2022-08-04T00:37:38;3.97;;;3.55;;
59514;SDS011;46082;43.034;-0.072;2022-08-04T00:40:39;4.97;;;3.50;;
59514;SDS011;46082;43.034;-0.072;2022-08-04T00:43:11;5.15;;;3.75;;
59514;SDS011;46082;43.034;-0.072;2022-08-04T00:45:43;5.50;;;4.43;;
59514;SDS011;46082;43.034;-0.072;2022-08-04T00:53:34;5.75;;;4.15;;
59514;SDS011;46082;43.034;-0.072;2022-08-04T00:56:21;8.70;;;3.55;;
59514;SDS011;46082;43.034;-0.072;2022-08-04T01:09:03;6.05;;;4.53;;
59514;SDS011;46082;43.034;-0.072;2022-08-04T01:16:55;3.72;;;3.40;;
59514;SDS011;46082;43.034;-0.072;2022-08-04T01:27:24;4.25;;;3.88;;
59514;SDS011;46082;43.034;-0.072;2022-08-04T01:29:55;5.15;;;4.15;;
59514;SDS011;46082;43.034;-0.072;2022-08-04T01:32:25;5.25;;;4.03;;
59514;SDS011;46082;43.034;-0.072;2022-08-04T01:38:04;4.97;;;4.18;;
59514;SDS011;46082;43.034;-0.072;2022-08-04T01:40:08;5.28;;;3.90;;
59514;SDS011;46082;43.034;-0.072;2022-08-04T01:42:34;4.38;;;3.88;;
59514;SDS011;46082;43.034;-0.072;2022-08-04T01:45:04;8.43;;;4.43;;
59514;SDS011;46082;43.034;-0.072;2022-08-04T01:47:33;4.13;;;3.72;;
59514;SDS011;46082;43.034;-0.072;2022-08-04T01:50:08;7.28;;;5.05;;
59514;SDS011;46082;43.034;-0.072;2022-08-04T01:52:35;4.22;;;3.80;;
59514;SDS011;46082;43.034;-0.072;2022-08-04T01:55:03;5.82;;;3.85;;
59514;SDS011;46082;43.034;-0.072;2022-08-04T01:57:31;5.70;;;4.15;;
59514;SDS011;46082;43.034;-0.072;2022-08-04T01:59:58;7.50;;;4.68;;
59514;SDS011;46082;43.034;-0.072;2022-08-04T02:02:24;4.40;;;3.40;;
59514;SDS011;46082;43.034;-0.072;2022-08-04T02:04:50;4.03;;;3.40;;
59514;SDS011;46082;43.034;-0.072;2022-08-04T02:07:39;3.03;;;2.70;;
59514;SDS011;46082;43.034;-0.072;2022-08-04T02:10:17;3.92;;;2.83;;
59514;SDS011;46082;43.034;-0.072;2022-08-04T02:12:58;2.75;;;2.53;;
59514;SDS011;46082;43.034;-0.072;2022-08-04T02:15:29;3.47;;;2.67;;
59514;SDS011;46082;43.034;-0.072;2022-08-04T02:17:59;3.72;;;2.53;;
59514;SDS011;46082;43.034;-0.072;2022-08-04T02:22:58;4.80;;;3.05;;
59514;SDS011;46082;43.034;-0.072;2022-08-04T02:25:26;4.13;;;2.92;;
59514;SDS011;46082;43.034;-0.072;2022-08-04T02:27:58;5.85;;;3.08;;
59514;SDS011;46082;43.034;-0.072;2022-08-04T02:33:14;4.20;;;3.53;;
59514;SDS011;46082;43.034;-0.072;2022-08-04T02:35:43;3.40;;;2.90;;
59514;SDS011;46082;43.034;-0.072;2022-08-04T02:38:26;2.65;;;2.45;;
59514;SDS011;46082;43.034;-0.072;2022-08-04T02:40:54;3.33;;;3.00;;
59514;SDS011;46082;43.034;-0.072;2022-08-04T02:43:20;4.85;;;2.92;;
59514;SDS011;46082;43.034;-0.072;2022-08-04T02:45:50;3.95;;;2.60;;
59514;SDS011;46082;43.034;-0.072;2022-08-04T02:48:21;2.60;;;2.13;;
59514;SDS011;46082;43.034;-0.072;2022-08-04T02:50:49;3.58;;;2.05;;
59514;SDS011;46082;43.034;-0.072;2022-08-04T02:53:16;5.85;;;2.47;;
59514;SDS011;46082;43.034;-0.072;2022-08-04T02:55:43;2.05;;;1.95;;
59514;SDS011;46082;43.034;-0.072;2022-08-04T02:58:09;2.83;;;2.10;;
59514;SDS011;46082;43.034;-0.072;2022-08-04T03:00:37;5.00;;;2.50;;
59514;SDS011;46082;43.034;-0.072;2022-08-04T03:08:06;2.60;;;2.17;;
59514;SDS011;46082;43.034;-0.072;2022-08-04T03:11:04;3.72;;;2.40;;
59514;SDS011;46082;43.034;-0.072;2022-08-04T03:16:02;4.57;;;2.03;;
59514;SDS011;46082;43.034;-0.072;2022-08-04T03:37:18;2.40;;;2.20;;
59514;SDS011;46082;43.034;-0.072;2022-08-04T03:55:38;4.03;;;2.70;;
59514;SDS011;46082;43.034;-0.072;2022-08-04T04:06:22;2.72;;;2.40;;
59514;SDS011;46082;43.034;-0.072;2022-08-04T04:14:35;2.88;;;2.65;;
59514;SDS011;46082;43.034;-0.072;2022-08-04T04:30:04;4.50;;;2.30;;
59514;SDS011;46082;43.034;-0.072;2022-08-04T04:38:02;3.55;;;2.47;;
59514;SDS011;46082;43.034;-0.072;2022-08-04T04:40:47;3.45;;;2.60;;
59514;SDS011;46082;43.034;-0.072;2022-08-04T04:43:33;3.53;;;2.28;;
59514;SDS011;46082;43.034;-0.072;2022-08-04T04:51:37;2.75;;;2.38;;
59514;SDS011;46082;43.034;-0.072;2022-08-04T04:54:10;4.10;;;2.50;;
59514;SDS011;46082;43.034;-0.072;2022-08-04T04:56:39;3.00;;;2.33;;
59514;SDS011;46082;43.034;-0.072;2022-08-04T04:59:10;3.13;;;2.55;;
59514;SDS011;46082;43.034;-0.072;2022-08-04T05:04:43;3.45;;;2.80;;
59514;SDS011;46082;43.034;-0.072;2022-08-04T05:09:51;2.50;;;2.20;;
59514;SDS011;46082;43.034;-0.072;2022-08-04T05:12:30;2.22;;;2.10;;
59514;SDS011;46082;43.034;-0.072;2022-08-04T05:15:00;2.53;;;2.33;;
59514;SDS011;46082;43.034;-0.072;2022-08-04T05:17:35;3.70;;;2.42;;
59514;SDS011;46082;43.034;-0.072;2022-08-04T05:20:07;4.03;;;2.58;;
59514;SDS011;46082;43.034;-0.072;2022-08-04T05:22:38;3.40;;;2.50;;
59514;SDS011;46082;43.034;-0.072;2022-08-04T05:27:34;2.53;;;2.03;;
59514;SDS011;46082;43.034;-0.072;2022-08-04T05:30:02;3.05;;;2.03;;
59514;SDS011;46082;43.034;-0.072;2022-08-04T05:32:51;2.97;;;2.13;;
59514;SDS011;46082;43.034;-0.072;2022-08-04T05:35:51;2.95;;;2.65;;
59514;SDS011;46082;43.034;-0.072;2022-08-04T05:38:19;2.60;;;2.35;;
59514;SDS011;46082;43.034;-0.072;2022-08-04T05:40:45;4.28;;;2.47;;
59514;SDS011;46082;43.034;-0.072;2022-08-04T05:43:11;2.38;;;2.17;;
59514;SDS011;46082;43.034;-0.072;2022-08-04T05:45:39;3.47;;;2.65;;
59514;SDS011;46082;43.034;-0.072;2022-08-04T05:48:06;2.55;;;2.35;;
59514;SDS011;46082;43.034;-0.072;2022-08-04T05:50:33;3.42;;;2.33;;
59514;SDS011;46082;43.034;-0.072;2022-08-04T05:53:00;2.60;;;2.40;;
59514;SDS011;46082;43.034;-0.072;2022-08-04T05:55:28;2.85;;;2.55;;
59514;SDS011;46082;43.034;-0.072;2022-08-04T05:57:58;3.08;;;2.78;;
59514;SDS011;46082;43.034;-0.072;2022-08-04T06:00:25;2.60;;;2.40;;
59514;SDS011;46082;43.034;-0.072;2022-08-04T06:02:52;2.78;;;2.58;;
59514;SDS011;46082;43.034;-0.072;2022-08-04T06:05:19;2.53;;;2.33;;
59514;SDS011;46082;43.034;-0.072;2022-08-04T06:07:45;3.78;;;2.33;;
59514;SDS011;46082;43.034;-0.072;2022-08-04T06:10:12;4.70;;;2.40;;
59514;SDS011;46082;43.034;-0.072;2022-08-04T06:12:43;2.28;;;2.10;;
59514;SDS011;46082;43.034;-0.072;2022-08-04T06:15:10;2.63;;;2.42;;
59514;SDS011;46082;43.034;-0.072;2022-08-04T06:17:41;4.05;;;2.40;;
59514;SDS011;46082;43.034;-0.072;2022-08-04T06:20:09;2.88;;;1.75;;
59514;SDS011;46082;43.034;-0.072;2022-08-04T06:22:38;4.47;;;2.60;;
59514;SDS011;46082;43.034;-0.072;2022-08-04T06:25:05;21.45;;;3.22;;
59514;SDS011;46082;43.034;-0.072;2022-08-04T06:27:32;2.58;;;2.30;;
59514;SDS011;46082;43.034;-0.072;2022-08-04T06:29:58;4.93;;;2.33;;
59514;SDS011;46082;43.034;-0.072;2022-08-04T06:32:27;2.60;;;2.40;;
59514;SDS011;46082;43.034;-0.072;2022-08-04T06:35:12;3.92;;;2.38;;
59514;SDS011;46082;43.034;-0.072;2022-08-04T06:37:39;4.40;;;2.38;;
59514;SDS011;46082;43.034;-0.072;2022-08-04T06:40:06;2.50;;;2.30;;
59514;SDS011;46082;43.034;-0.072;2022-08-04T06:42:33;2.50;;;2.30;;
59514;SDS011;46082;43.034;-0.072;2022-08-04T06:44:59;2.35;;;2.15;;
59514;SDS011;46082;43.034;-0.072;2022-08-04T06:47:26;3.13;;;2.53;;
59514;SDS011;46082;43.034;-0.072;2022-08-04T06:49:54;4.10;;;2.25;;
59514;SDS011;46082;43.034;-0.072;2022-08-04T06:52:20;2.42;;;2.17;;
59514;SDS011;46082;43.034;-0.072;2022-08-04T06:54:47;2.80;;;2.38;;
59514;SDS011;46082;43.034;-0.072;2022-08-04T06:57:14;2.85;;;2.63;;
59514;SDS011;46082;43.034;-0.072;2022-08-04T06:59:44;2.70;;;2.50;;
59514;SDS011;46082;43.034;-0.072;2022-08-04T07:02:14;5.03;;;2.05;;
59514;SDS011;46082;43.034;-0.072;2022-08-04T07:04:42;3.65;;;2.28;;
59514;SDS011;46082;43.034;-0.072;2022-08-04T07:07:09;2.13;;;1.92;;
59514;SDS011;46082;43.034;-0.072;2022-08-04T07:09:36;2.65;;;2.45;;
59514;SDS011;46082;43.034;-0.072;2022-08-04T07:12:02;2.70;;;2.42;;
59514;SDS011;46082;43.034;-0.072;2022-08-04T07:14:28;5.47;;;2.45;;
59514;SDS011;46082;43.034;-0.072;2022-08-04T07:16:57;2.80;;;2.53;;
59514;SDS011;46082;43.034;-0.072;2022-08-04T07:19:24;3.17;;;2.88;;
59514;SDS011;46082;43.034;-0.072;2022-08-04T07:21:50;3.47;;;2.70;;
59514;SDS011;46082;43.034;-0.072;2022-08-04T07:24:16;3.08;;;2.78;;
59514;SDS011;46082;43.034;-0.072;2022-08-04T07:26:42;7.50;;;2.92;;
59514;SDS011;46082;43.034;-0.072;2022-08-04T07:29:09;4.47;;;2.80;;
59514;SDS011;46082;43.034;-0.072;2022-08-04T07:31:36;6.75;;;2.90;;
59514;SDS011;46082;43.034;-0.072;2022-08-04T07:34:02;4.68;;;2.95;;
59514;SDS011;46082;43.034;-0.072;2022-08-04T07:36:29;3.33;;;2.83;;
59514;SDS011;46082;43.034;-0.072;2022-08-04T07:38:55;4.95;;;2.70;;
59514;SDS011;46082;43.034;-0.072;2022-08-04T07:41:21;3.15;;;2.50;;
59514;SDS011;46082;43.034;-0.072;2022-08-04T07:43:49;3.03;;;2.47;;
59514;SDS011;46082;43.034;-0.072;2022-08-04T07:46:15;3.13;;;2.83;;
59514;SDS011;46082;43.034;-0.072;2022-08-04T07:48:41;3.45;;;3.08;;
59514;SDS011;46082;43.034;-0.072;2022-08-04T07:51:08;3.03;;;2.78;;
59514;SDS011;46082;43.034;-0.072;2022-08-04T07:53:34;7.65;;;3.10;;
59514;SDS011;46082;43.034;-0.072;2022-08-04T07:56:00;2.90;;;2.58;;
59514;SDS011;46082;43.034;-0.072;2022-08-04T07:58:27;4.15;;;2.67;;
59514;SDS011;46082;43.034;-0.072;2022-08-04T08:00:53;4.47;;;3.00;;
59514;SDS011;46082;43.034;-0.072;2022-08-04T08:03:19;3.25;;;2.55;;
59514;SDS011;46082;43.034;-0.072;2022-08-04T08:05:45;3.80;;;2.80;;
59514;SDS011;46082;43.034;-0.072;2022-08-04T08:08:12;3.05;;;2.60;;
59514;SDS011;46082;43.034;-0.072;2022-08-04T08:10:39;3.15;;;2.80;;
59514;SDS011;46082;43.034;-0.072;2022-08-04T08:13:10;3.83;;;2.70;;
59514;SDS011;46082;43.034;-0.072;2022-08-04T08:15:36;5.15;;;3.20;;
59514;SDS011;46082;43.034;-0.072;2022-08-04T08:18:03;3.38;;;3.05;;
59514;SDS011;46082;43.034;-0.072;2022-08-04T08:20:30;3.80;;;3.40;;
59514;SDS011;46082;43.034;-0.072;2022-08-04T08:22:57;4.70;;;2.72;;
59514;SDS011;46082;43.034;-0.072;2022-08-04T08:25:23;2.63;;;2.13;;
59514;SDS011;46082;43.034;-0.072;2022-08-04T08:27:49;4.88;;;2.60;;
59514;SDS011;46082;43.034;-0.072;2022-08-04T08:30:15;3.55;;;3.05;;
59514;SDS011;46082;43.034;-0.072;2022-08-04T08:32:42;4.68;;;2.72;;
59514;SDS011;46082;43.034;-0.072;2022-08-04T08:35:08;3.63;;;2.88;;
59514;SDS011;46082;43.034;-0.072;2022-08-04T08:37:36;4.85;;;2.90;;
59514;SDS011;46082;43.034;-0.072;2022-08-04T08:40:16;4.97;;;3.45;;
59514;SDS011;46082;43.034;-0.072;2022-08-04T08:43:23;2.70;;;2.30;;
59514;SDS011;46082;43.034;-0.072;2022-08-04T08:50:45;4.40;;;3.25;;
59514;SDS011;46082;43.034;-0.072;2022-08-04T08:53:34;4.18;;;3.35;;
59514;SDS011;46082;43.034;-0.072;2022-08-04T09:03:45;4.70;;;2.78;;
59514;SDS011;46082;43.034;-0.072;2022-08-04T09:11:56;3.80;;;2.92;;
59514;SDS011;46082;43.034;-0.072;2022-08-04T09:14:41;4.57;;;3.03;;
59514;SDS011;46082;43.034;-0.072;2022-08-04T09:17:19;4.50;;;3.00;;
59514;SDS011;46082;43.034;-0.072;2022-08-04T09:20:05;3.70;;;3.38;;
59514;SDS011;46082;43.034;-0.072;2022-08-04T09:24:59;3.13;;;2.78;;
59514;SDS011;46082;43.034;-0.072;2022-08-04T09:27:34;5.60;;;3.72;;
59514;SDS011;46082;43.034;-0.072;2022-08-04T09:30:07;4.20;;;2.85;;
59514;SDS011;46082;43.034;-0.072;2022-08-04T09:35:15;4.25;;;2.97;;
59514;SDS011;46082;43.034;-0.072;2022-08-04T09:37:45;3.00;;;2.80;;
59514;SDS011;46082;43.034;-0.072;2022-08-04T09:45:28;5.13;;;3.03;;
59514;SDS011;46082;43.034;-0.072;2022-08-04T09:48:18;3.53;;;2.95;;
59514;SDS011;46082;43.034;-0.072;2022-08-04T09:50:46;6.88;;;3.30;;
59514;SDS011;46082;43.034;-0.072;2022-08-04T09:55:56;3.15;;;2.83;;
59514;SDS011;46082;43.034;-0.072;2022-08-04T10:01:08;2.60;;;2.40;;
59514;SDS011;46082;43.034;-0.072;2022-08-04T10:03:37;6.75;;;3.22;;
59514;SDS011;46082;43.034;-0.072;2022-08-04T10:11:06;3.38;;;2.58;;
59514;SDS011;46082;43.034;-0.072;2022-08-04T10:13:40;3.47;;;3.00;;
59514;SDS011;46082;43.034;-0.072;2022-08-04T10:16:23;3.72;;;2.85;;
59514;SDS011;46082;43.034;-0.072;2022-08-04T10:24:23;3.25;;;2.30;;
59514;SDS011;46082;43.034;-0.072;2022-08-04T10:32:13;3.10;;;2.83;;
59514;SDS011;46082;43.034;-0.072;2022-08-04T10:34:50;2.97;;;2.78;;
59514;SDS011;46082;43.034;-0.072;2022-08-04T10:37:22;2.97;;;2.67;;
59514;SDS011;46082;43.034;-0.072;2022-08-04T10:39:56;3.15;;;2.40;;
59514;SDS011;46082;43.034;-0.072;2022-08-04T10:42:45;3.65;;;3.03;;
59514;SDS011;46082;43.034;-0.072;2022-08-04T10:45:18;3.58;;;3.20;;
59514;SDS011;46082;43.034;-0.072;2022-08-04T10:47:53;3.28;;;2.97;;
59514;SDS011;46082;43.034;-0.072;2022-08-04T10:50:22;3.28;;;2.88;;
59514;SDS011;46082;43.034;-0.072;2022-08-04T10:52:54;4.13;;;2.80;;
59514;SDS011;46082;43.034;-0.072;2022-08-04T10:55:27;3.00;;;2.70;;
59514;SDS011;46082;43.034;-0.072;2022-08-04T10:57:59;3.35;;;2.78;;
59514;SDS011;46082;43.034;-0.072;2022-08-04T11:00:28;2.67;;;2.47;;
59514;SDS011;46082;43.034;-0.072;2022-08-04T11:08:15;4.60;;;2.92;;
59514;SDS011;46082;43.034;-0.072;2022-08-04T11:10:47;3.30;;;2.97;;
59514;SDS011;46082;43.034;-0.072;2022-08-04T11:13:14;3.55;;;3.25;;
59514;SDS011;46082;43.034;-0.072;2022-08-04T11:16:15;3.72;;;2.97;;
59514;SDS011;46082;43.034;-0.072;2022-08-04T11:23:35;3.67;;;3.38;;
59514;SDS011;46082;43.034;-0.072;2022-08-04T11:26:05;3.47;;;3.15;;
59514;SDS011;46082;43.034;-0.072;2022-08-04T11:28:38;3.30;;;2.78;;
59514;SDS011;46082;43.034;-0.072;2022-08-04T11:31:11;4.18;;;2.80;;
59514;SDS011;46082;43.034;-0.072;2022-08-04T11:41:24;4.30;;;2.88;;
59514;SDS011;46082;43.034;-0.072;2022-08-04T11:43:54;3.58;;;3.05;;
59514;SDS011;46082;43.034;-0.072;2022-08-04T11:46:35;4.57;;;2.70;;
59514;SDS011;46082;43.034;-0.072;2022-08-04T11:49:09;4.53;;;2.85;;
59514;SDS011;46082;43.034;-0.072;2022-08-04T11:51:36;3.30;;;2.63;;
59514;SDS011;46082;43.034;-0.072;2022-08-04T11:54:03;3.13;;;2.33;;
59514;SDS011;46082;43.034;-0.072;2022-08-04T11:56:29;3.70;;;2.88;;
59514;SDS011;46082;43.034;-0.072;2022-08-04T11:58:55;2.60;;;2.40;;
59514;SDS011;46082;43.034;-0.072;2022-08-04T12:04:00;5.20;;;3.08;;
59514;SDS011;46082;43.034;-0.072;2022-08-04T12:09:31;2.60;;;2.40;;
59514;SDS011;46082;43.034;-0.072;2022-08-04T12:17:05;2.85;;;2.50;;
59514;SDS011;46082;43.034;-0.072;2022-08-04T12:19:38;6.68;;;3.40;;
59514;SDS011;46082;43.034;-0.072;2022-08-04T12:22:10;2.90;;;2.60;;
59514;SDS011;46082;43.034;-0.072;2022-08-04T12:27:19;5.05;;;2.95;;
59514;SDS011;46082;43.034;-0.072;2022-08-04T12:29:45;2.65;;;2.45;;
59514;SDS011;46082;43.034;-0.072;2022-08-04T12:35:06;5.28;;;3.08;;
59514;SDS011;46082;43.034;-0.072;2022-08-04T12:37:43;4.60;;;2.95;;
59514;SDS011;46082;43.034;-0.072;2022-08-04T12:40:28;3.15;;;2.95;;
59514;SDS011;46082;43.034;-0.072;2022-08-04T12:45:55;2.58;;;2.38;;
59514;SDS011;46082;43.034;-0.072;2022-08-04T12:48:23;6.38;;;3.38;;
59514;SDS011;46082;43.034;-0.072;2022-08-04T12:50:51;4.18;;;2.92;;
59514;SDS011;46082;43.034;-0.072;2022-08-04T12:53:18;6.07;;;3.60;;
59514;SDS011;46082;43.034;-0.072;2022-08-04T12:55:46;3.47;;;2.92;;
59514;SDS011;46082;43.034;-0.072;2022-08-04T12:58:20;3.35;;;3.05;;
59514;SDS011;46082;43.034;-0.072;2022-08-04T13:00:55;4.97;;;3.53;;
59514;SDS011;46082;43.034;-0.072;2022-08-04T13:03:22;4.10;;;3.05;;
59514;SDS011;46082;43.034;-0.072;2022-08-04T13:05:51;3.63;;;3.33;;
59514;SDS011;46082;43.034;-0.072;2022-08-04T13:08:19;5.18;;;3.35;;
59514;SDS011;46082;43.034;-0.072;2022-08-04T13:10:45;3.83;;;3.00;;
59514;SDS011;46082;43.034;-0.072;2022-08-04T13:13:16;3.67;;;3.10;;
59514;SDS011;46082;43.034;-0.072;2022-08-04T13:15:43;7.20;;;3.30;;
59514;SDS011;46082;43.034;-0.072;2022-08-04T13:18:19;8.43;;;3.28;;
59514;SDS011;46082;43.034;-0.072;2022-08-04T13:20:46;6.03;;;3.33;;
59514;SDS011;46082;43.034;-0.072;2022-08-04T13:23:14;4.80;;;3.28;;
59514;SDS011;46082;43.034;-0.072;2022-08-04T13:25:44;3.00;;;2.80;;
59514;SDS011;46082;43.034;-0.072;2022-08-04T13:28:12;2.80;;;2.60;;
59514;SDS011;46082;43.034;-0.072;2022-08-04T13:30:39;3.45;;;3.10;;
59514;SDS011;46082;43.034;-0.072;2022-08-04T13:33:06;4.15;;;3.75;;
59514;SDS011;46082;43.034;-0.072;2022-08-04T13:35:32;4.70;;;3.40;;
59514;SDS011;46082;43.034;-0.072;2022-08-04T13:37:59;4.50;;;2.78;;
59514;SDS011;46082;43.034;-0.072;2022-08-04T13:40:26;5.53;;;3.20;;
59514;SDS011;46082;43.034;-0.072;2022-08-04T13:42:53;3.33;;;3.03;;
59514;SDS011;46082;43.034;-0.072;2022-08-04T13:45:23;3.45;;;3.15;;
59514;SDS011;46082;43.034;-0.072;2022-08-04T13:47:50;4.15;;;3.58;;
59514;SDS011;46082;43.034;-0.072;2022-08-04T13:52:43;5.05;;;3.30;;
59514;SDS011;46082;43.034;-0.072;2022-08-04T13:55:23;3.92;;;3.40;;
59514;SDS011;46082;43.034;-0.072;2022-08-04T13:57:53;3.38;;;2.97;;
59514;SDS011;46082;43.034;-0.072;2022-08-04T14:00:19;3.25;;;2.95;;
59514;SDS011;46082;43.034;-0.072;2022-08-04T14:02:55;3.03;;;2.72;;
59514;SDS011;46082;43.034;-0.072;2022-08-04T14:05:25;3.58;;;3.28;;
59514;SDS011;46082;43.034;-0.072;2022-08-04T14:07:53;5.50;;;3.10;;
59514;SDS011;46082;43.034;-0.072;2022-08-04T14:10:20;4.00;;;3.60;;
59514;SDS011;46082;43.034;-0.072;2022-08-04T14:12:48;3.08;;;2.78;;
59514;SDS011;46082;43.034;-0.072;2022-08-04T14:15:31;3.63;;;3.33;;
59514;SDS011;46082;43.034;-0.072;2022-08-04T14:23:28;4.25;;;3.17;;
59514;SDS011;46082;43.034;-0.072;2022-08-04T14:25:54;3.83;;;2.88;;
59514;SDS011;46082;43.034;-0.072;2022-08-04T14:28:27;3.95;;;3.03;;
59514;SDS011;46082;43.034;-0.072;2022-08-04T14:31:07;4.05;;;3.00;;
59514;SDS011;46082;43.034;-0.072;2022-08-04T14:33:38;4.35;;;2.70;;
59514;SDS011;46082;43.034;-0.072;2022-08-04T14:36:05;3.25;;;2.95;;
59514;SDS011;46082;43.034;-0.072;2022-08-04T14:41:27;5.55;;;3.25;;
59514;SDS011;46082;43.034;-0.072;2022-08-04T14:43:54;5.35;;;3.20;;
59514;SDS011;46082;43.034;-0.072;2022-08-04T14:46:21;4.45;;;3.25;;
59514;SDS011;46082;43.034;-0.072;2022-08-04T14:49:01;10.57;;;3.50;;
59514;SDS011;46082;43.034;-0.072;2022-08-04T14:51:27;5.57;;;3.35;;
59514;SDS011;46082;43.034;-0.072;2022-08-04T14:53:58;10.05;;;3.97;;
59514;SDS011;46082;43.034;-0.072;2022-08-04T14:56:24;5.22;;;4.03;;
59514;SDS011;46082;43.034;-0.072;2022-08-04T14:58:57;4.70;;;3.28;;
59514;SDS011;46082;43.034;-0.072;2022-08-04T15:01:23;7.38;;;3.92;;
59514;SDS011;46082;43.034;-0.072;2022-08-04T15:03:50;5.32;;;3.67;;
59514;SDS011;46082;43.034;-0.072;2022-08-04T15:06:19;4.05;;;3.58;;
59514;SDS011;46082;43.034;-0.072;2022-08-04T15:08:45;4.97;;;3.78;;
59514;SDS011;46082;43.034;-0.072;2022-08-04T15:11:11;5.53;;;3.67;;
59514;SDS011;46082;43.034;-0.072;2022-08-04T15:13:37;6.00;;;3.92;;
59514;SDS011;46082;43.034;-0.072;2022-08-04T15:16:03;5.45;;;3.85;;
59514;SDS011;46082;43.034;-0.072;2022-08-04T15:18:30;3.47;;;3.17;;
59514;SDS011;46082;43.034;-0.072;2022-08-04T15:20:56;5.10;;;4.13;;
59514;SDS011;46082;43.034;-0.072;2022-08-04T15:23:22;4.55;;;3.38;;
59514;SDS011;46082;43.034;-0.072;2022-08-04T15:25:50;6.10;;;3.95;;
59514;SDS011;46082;43.034;-0.072;2022-08-04T15:28:18;5.03;;;4.30;;
59514;SDS011;46082;43.034;-0.072;2022-08-04T15:30:49;4.28;;;3.88;;
59514;SDS011;46082;43.034;-0.072;2022-08-04T15:33:16;5.05;;;4.30;;
59514;SDS011;46082;43.034;-0.072;2022-08-04T15:35:48;6.03;;;4.00;;
59514;SDS011;46082;43.034;-0.072;2022-08-04T15:38:17;4.63;;;4.22;;
59514;SDS011;46082;43.034;-0.072;2022-08-04T15:41:04;6.78;;;4.65;;
59514;SDS011;46082;43.034;-0.072;2022-08-04T15:43:44;5.88;;;4.85;;
59514;SDS011;46082;43.034;-0.072;2022-08-04T15:46:11;5.05;;;4.07;;
59514;SDS011;46082;43.034;-0.072;2022-08-04T15:48:37;4.63;;;4.18;;
59514;SDS011;46082;43.034;-0.072;2022-08-04T15:51:05;5.85;;;4.38;;
59514;SDS011;46082;43.034;-0.072;2022-08-04T15:58:51;4.68;;;4.28;;
59514;SDS011;46082;43.034;-0.072;2022-08-04T16:01:19;7.22;;;4.28;;
59514;SDS011;46082;43.034;-0.072;2022-08-04T16:11:06;6.07;;;3.97;;
59514;SDS011;46082;43.034;-0.072;2022-08-04T16:13:32;5.72;;;4.45;;
59514;SDS011;46082;43.034;-0.072;2022-08-04T16:15:58;4.70;;;4.30;;
59514;SDS011;46082;43.034;-0.072;2022-08-04T16:20:53;5.22;;;4.70;;
59514;SDS011;46082;43.034;-0.072;2022-08-04T16:26:01;7.60;;;4.30;;
59514;SDS011;46082;43.034;-0.072;2022-08-04T16:31:00;4.60;;;3.97;;
59514;SDS011;46082;43.034;-0.072;2022-08-04T16:33:28;3.58;;;3.28;;
59514;SDS011;46082;43.034;-0.072;2022-08-04T16:35:58;3.38;;;3.08;;
59514;SDS011;46082;43.034;-0.072;2022-08-04T16:38:24;3.63;;;3.33;;
59514;SDS011;46082;43.034;-0.072;2022-08-04T16:40:54;4.68;;;3.40;;
59514;SDS011;46082;43.034;-0.072;2022-08-04T16:43:21;5.05;;;3.35;;
59514;SDS011;46082;43.034;-0.072;2022-08-04T16:46:00;3.35;;;3.05;;
59514;SDS011;46082;43.034;-0.072;2022-08-04T16:48:31;4.10;;;3.33;;
59514;SDS011;46082;43.034;-0.072;2022-08-04T16:51:08;3.65;;;3.00;;
59514;SDS011;46082;43.034;-0.072;2022-08-04T16:53:44;5.47;;;3.42;;
59514;SDS011;46082;43.034;-0.072;2022-08-04T16:56:12;3.80;;;3.00;;
59514;SDS011;46082;43.034;-0.072;2022-08-04T16:58:39;6.97;;;3.72;;
59514;SDS011;46082;43.034;-0.072;2022-08-04T17:01:13;4.18;;;3.60;;
59514;SDS011;46082;43.034;-0.072;2022-08-04T17:03:49;5.55;;;3.28;;
59514;SDS011;46082;43.034;-0.072;2022-08-04T17:06:15;5.45;;;3.95;;
59514;SDS011;46082;43.034;-0.072;2022-08-04T17:08:42;3.35;;;3.05;;
59514;SDS011;46082;43.034;-0.072;2022-08-04T17:11:09;4.20;;;3.45;;
59514;SDS011;46082;43.034;-0.072;2022-08-04T17:13:37;3.70;;;3.30;;
59514;SDS011;46082;43.034;-0.072;2022-08-04T17:16:05;4.22;;;2.88;;
59514;SDS011;46082;43.034;-0.072;2022-08-04T17:18:33;5.32;;;3.40;;
59514;SDS011;46082;43.034;-0.072;2022-08-04T17:21:02;5.32;;;3.28;;
59514;SDS011;46082;43.034;-0.072;2022-08-04T17:23:33;6.78;;;3.17;;
59514;SDS011;46082;43.034;-0.072;2022-08-04T17:26:01;3.42;;;3.13;;
59514;SDS011;46082;43.034;-0.072;2022-08-04T17:28:28;5.70;;;3.70;;
59514;SDS011;46082;43.034;-0.072;2022-08-04T17:30:55;5.22;;;3.90;;
59514;SDS011;46082;43.034;-0.072;2022-08-04T17:33:22;9.50;;;3.72;;
59514;SDS011;46082;43.034;-0.072;2022-08-04T17:35:48;4.47;;;3.45;;
59514;SDS011;46082;43.034;-0.072;2022-08-04T17:38:15;4.13;;;3.72;;
59514;SDS011;46082;43.034;-0.072;2022-08-04T17:40:51;3.78;;;3.47;;
59514;SDS011;46082;43.034;-0.072;2022-08-04T17:43:17;6.95;;;3.72;;
59514;SDS011;46082;43.034;-0.072;2022-08-04T17:45:43;10.80;;;3.45;;
59514;SDS011;46082;43.034;-0.072;2022-08-04T17:48:16;5.28;;;3.88;;
59514;SDS011;46082;43.034;-0.072;2022-08-04T17:50:42;5.07;;;3.38;;
59514;SDS011;46082;43.034;-0.072;2022-08-04T17:53:08;4.45;;;4.05;;
59514;SDS011;46082;43.034;-0.072;2022-08-04T17:55:44;9.07;;;3.90;;
59514;SDS011;46082;43.034;-0.072;2022-08-04T17:58:14;4.10;;;3.72;;
59514;SDS011;46082;43.034;-0.072;2022-08-04T18:00:40;4.68;;;3.47;;
59514;SDS011;46082;43.034;-0.072;2022-08-04T18:03:06;5.85;;;4.25;;
59514;SDS011;46082;43.034;-0.072;2022-08-04T18:05:32;3.92;;;3.58;;
59514;SDS011;46082;43.034;-0.072;2022-08-04T18:08:06;4.57;;;4.15;;
59514;SDS011;46082;43.034;-0.072;2022-08-04T18:10:38;4.45;;;3.53;;
59514;SDS011;46082;43.034;-0.072;2022-08-04T18:13:05;5.18;;;4.72;;
59514;SDS011;46082;43.034;-0.072;2022-08-04T18:15:32;6.32;;;3.83;;
59514;SDS011;46082;43.034;-0.072;2022-08-04T18:17:58;3.42;;;3.13;;
59514;SDS011;46082;43.034;-0.072;2022-08-04T18:20:24;5.18;;;3.55;;
59514;SDS011;46082;43.034;-0.072;2022-08-04T18:22:51;3.40;;;3.10;;
59514;SDS011;46082;43.034;-0.072;2022-08-04T18:25:18;5.05;;;3.60;;
59514;SDS011;46082;43.034;-0.072;2022-08-04T18:27:51;3.90;;;3.50;;
59514;SDS011;46082;43.034;-0.072;2022-08-04T18:30:18;3.03;;;2.83;;
59514;SDS011;46082;43.034;-0.072;2022-08-04T18:32:44;4.60;;;3.08;;
59514;SDS011;46082;43.034;-0.072;2022-08-04T18:35:11;4.20;;;3.70;;
59514;SDS011;46082;43.034;-0.072;2022-08-04T18:37:37;6.95;;;3.15;;
59514;SDS011;46082;43.034;-0.072;2022-08-04T18:40:04;3.80;;;3.50;;
59514;SDS011;46082;43.034;-0.072;2022-08-04T18:42:31;5.00;;;3.97;;
59514;SDS011;46082;43.034;-0.072;2022-08-04T18:44:57;4.20;;;3.53;;
59514;SDS011;46082;43.034;-0.072;2022-08-04T18:47:23;5.80;;;3.72;;
59514;SDS011;46082;43.034;-0.072;2022-08-04T18:49:50;5.20;;;3.90;;
59514;SDS011;46082;43.034;-0.072;2022-08-04T18:52:16;7.40;;;3.80;;
59514;SDS011;46082;43.034;-0.072;2022-08-04T18:54:42;4.68;;;3.42;;
59514;SDS011;46082;43.034;-0.072;2022-08-04T18:57:08;7.20;;;4.00;;